Time;durP1;ratioP1;P1;durP2;ratioP2;P2;SDS_P1;SDS_P2;PMS_P1;PMS_P2;Temp;Humidity;BMP_temperature;BMP_pressure;BME280_temperature;BME280_humidity;BME280_pressure;Samples;Min_cycle;Max_cycle;Signal;HPM_P1;HPM_P2
2022/06/29 00:00:34;;;;;;;;;;;16.70;99.90;;;;;;4998427;28;19987;-71
2022/06/29 00:03:02;;;;;;;;;;;16.70;99.90;;;;;;5007229;28;19968;-70
2022/06/29 00:05:30;;;;;;;;;;;16.60;99.90;;;;;;4997308;28;20456;-70
2022/06/29 00:07:57;;;;;;;;;;;16.60;99.90;;;;;;4995814;28;20333;-70
2022/06/29 00:10:24;;;;;;;;;;;16.60;99.90;;;;;;4996197;28;20016;-70
2022/06/29 00:12:51;;;;;;;;;;;16.60;99.90;;;;;;5004443;28;19932;-71
2022/06/29 00:15:18;;;;;;;;;;;16.50;99.90;;;;;;5000220;28;19952;-71
2022/06/29 00:17:45;;;;;;;;;;;16.40;99.90;;;;;;5001579;28;19972;-71
2022/06/29 00:20:13;;;;;;;;;;;16.40;99.90;;;;;;4994632;28;20183;-71
2022/06/29 00:22:40;;;;;;;;;;;16.30;99.90;;;;;;5006347;28;20024;-71
2022/06/29 00:25:08;;;;;;;;;;;16.30;99.90;;;;;;4995868;28;20492;-70
2022/06/29 00:27:35;;;;;;;;;;;16.20;99.90;;;;;;4996119;28;19950;-70
2022/06/29 00:30:02;;;;;;;;;;;16.20;99.90;;;;;;4993555;28;20016;-70
2022/06/29 00:32:28;;;;;;;;;;;16.20;99.90;;;;;;4996802;28;19930;-70
2022/06/29 00:34:55;;;;;;;;;;;16.20;99.90;;;;;;4994960;28;19961;-72
2022/06/29 00:37:23;;;;;;;;;;;16.10;99.90;;;;;;4998330;28;19961;-70
2022/06/29 00:39:50;;;;;;;;;;;16.10;99.90;;;;;;4994007;28;19926;-70
2022/06/29 00:42:17;;;;;;;;;;;16.10;99.90;;;;;;5010870;28;20476;-72
2022/06/29 00:44:44;;;;;;;;;;;16.10;99.90;;;;;;5002783;28;20325;-70
2022/06/29 00:47:10;;;;;;;;;;;16.10;99.90;;;;;;4997102;28;19980;-70
2022/06/29 00:49:37;;;;;;;;;;;16.10;99.90;;;;;;4993259;28;19929;-70
2022/06/29 00:52:05;;;;;;;;;;;16.10;99.90;;;;;;4998095;28;19975;-70
2022/06/29 00:54:36;;;;;;;;;;;16.00;99.90;;;;;;4992690;28;19925;-70
2022/06/29 00:57:03;;;;;;;;;;;16.00;99.90;;;;;;5004914;28;20001;-70
2022/06/29 00:59:33;;;;;;;;;;;16.00;99.90;;;;;;5001159;28;19957;-70
2022/06/29 01:02:00;;;;;;;;;;;16.00;99.90;;;;;;5008530;28;20025;-70
2022/06/29 01:04:27;;;;;;;;;;;16.00;99.90;;;;;;4995168;28;20412;-71
2022/06/29 01:06:54;;;;;;;;;;;15.90;99.90;;;;;;5006141;28;19979;-71
2022/06/29 01:09:20;;;;;;;;;;;15.90;99.90;;;;;;4999461;28;20717;-70
2022/06/29 01:11:50;;;;;;;;;;;15.80;99.90;;;;;;5007657;28;19965;-70
2022/06/29 01:14:17;;;;;;;;;;;15.80;99.90;;;;;;4999981;28;19969;-71
2022/06/29 01:16:44;;;;;;;;;;;15.80;99.90;;;;;;4993895;28;19984;-70
2022/06/29 01:19:10;;;;;;;;;;;15.80;99.90;;;;;;4993210;28;20385;-71
2022/06/29 01:21:40;;;;;;;;;;;15.80;99.90;;;;;;4993798;28;19932;-71
2022/06/29 01:24:08;;;;;;;;;;;15.80;99.90;;;;;;4993835;28;19926;-71
2022/06/29 01:26:35;;;;;;;;;;;15.70;99.90;;;;;;4999280;28;19930;-72
2022/06/29 01:29:01;;;;;;;;;;;15.70;99.90;;;;;;5010046;28;20025;-71
2022/06/29 01:31:28;;;;;;;;;;;15.60;99.90;;;;;;5008582;28;19983;-71
2022/06/29 01:33:55;;;;;;;;;;;15.60;99.90;;;;;;5009733;28;20017;-71
2022/06/29 01:36:22;;;;;;;;;;;15.60;99.90;;;;;;4997819;28;19925;-71
2022/06/29 01:38:48;;;;;;;;;;;15.50;99.90;;;;;;4993597;28;20430;-71
2022/06/29 01:41:17;;;;;;;;;;;15.50;99.90;;;;;;5002288;28;19925;-71
2022/06/29 01:43:44;;;;;;;;;;;15.40;99.90;;;;;;5005304;28;19968;-71
2022/06/29 01:46:11;;;;;;;;;;;15.40;99.90;;;;;;5004059;28;19932;-71
2022/06/29 01:48:37;;;;;;;;;;;15.30;99.90;;;;;;4993029;28;19972;-71
2022/06/29 01:51:04;;;;;;;;;;;15.40;99.90;;;;;;4999671;28;19926;-71
2022/06/29 01:53:31;;;;;;;;;;;15.40;99.90;;;;;;5002280;28;19930;-71
2022/06/29 01:55:57;;;;;;;;;;;15.40;99.90;;;;;;4991602;28;19953;-72
2022/06/29 01:58:26;;;;;;;;;;;15.50;99.90;;;;;;4992345;28;20040;-72
2022/06/29 02:00:52;;;;;;;;;;;15.50;99.90;;;;;;4994412;28;19964;-72
2022/06/29 02:03:19;;;;;;;;;;;15.60;99.90;;;;;;4995320;28;19926;-71
2022/06/29 02:05:46;;;;;;;;;;;15.50;99.90;;;;;;4994230;28;20020;-71
2022/06/29 02:08:12;;;;;;;;;;;15.40;99.90;;;;;;5001236;28;20392;-72
2022/06/29 02:10:39;;;;;;;;;;;15.20;99.90;;;;;;4997353;28;20012;-72
2022/06/29 02:13:06;;;;;;;;;;;15.20;99.90;;;;;;5003141;28;19933;-71
2022/06/29 02:15:34;;;;;;;;;;;15.10;99.90;;;;;;4993074;28;19973;-72
2022/06/29 02:18:02;;;;;;;;;;;15.10;99.90;;;;;;4991955;28;20097;-71
2022/06/29 02:20:28;;;;;;;;;;;15.00;99.90;;;;;;4995332;28;19926;-72
2022/06/29 02:22:55;;;;;;;;;;;14.90;99.90;;;;;;5009678;28;19973;-72
2022/06/29 02:25:22;;;;;;;;;;;14.90;99.90;;;;;;5000571;28;20024;-72
2022/06/29 02:27:48;;;;;;;;;;;14.80;99.90;;;;;;4992587;28;20019;-71
2022/06/29 02:30:16;;;;;;;;;;;14.80;99.90;;;;;;4994706;28;19973;-72
2022/06/29 02:35:28;;;;;;;;;;;14.60;99.90;;;;;;4993722;28;19932;-72
2022/06/29 02:37:55;;;;;;;;;;;14.50;99.90;;;;;;4995296;28;20274;-72
2022/06/29 02:40:21;;;;;;;;;;;14.60;99.90;;;;;;4998335;28;19926;-72
2022/06/29 02:42:48;;;;;;;;;;;14.50;99.90;;;;;;5008695;28;20032;-71
2022/06/29 02:45:15;;;;;;;;;;;14.50;99.90;;;;;;4996858;28;20005;-71
2022/06/29 02:47:41;;;;;;;;;;;14.40;99.90;;;;;;4997353;28;20384;-71
2022/06/29 02:50:10;;;;;;;;;;;14.40;99.90;;;;;;4997217;28;19926;-71
2022/06/29 02:52:37;;;;;;;;;;;14.40;99.90;;;;;;5009853;28;19979;-71
2022/06/29 02:55:03;;;;;;;;;;;14.30;99.90;;;;;;5006530;28;19961;-71
2022/06/29 02:57:30;;;;;;;;;;;14.30;99.90;;;;;;4995751;28;19939;-71
2022/06/29 02:59:57;;;;;;;;;;;14.40;99.90;;;;;;4994409;28;20449;-71
2022/06/29 03:02:24;;;;;;;;;;;14.50;99.90;;;;;;4996350;28;20389;-71
2022/06/29 03:04:51;;;;;;;;;;;14.40;99.90;;;;;;4995572;28;20312;-71
2022/06/29 03:07:19;;;;;;;;;;;14.40;99.90;;;;;;5008495;28;19929;-71
2022/06/29 03:09:45;;;;;;;;;;;14.40;99.90;;;;;;4995473;28;19926;-71
2022/06/29 03:12:12;;;;;;;;;;;14.30;99.90;;;;;;4995389;28;19972;-71
2022/06/29 03:14:39;;;;;;;;;;;14.40;99.90;;;;;;5003738;28;20012;-71
2022/06/29 03:17:05;;;;;;;;;;;14.50;99.90;;;;;;4998720;28;20016;-71
2022/06/29 03:19:32;;;;;;;;;;;14.50;99.90;;;;;;5011082;28;19981;-71
2022/06/29 03:21:59;;;;;;;;;;;14.60;99.90;;;;;;5010495;28;19961;-71
2022/06/29 03:24:27;;;;;;;;;;;14.60;99.90;;;;;;5001136;28;20300;-71
2022/06/29 03:26:54;;;;;;;;;;;14.60;99.90;;;;;;4994425;28;20332;-71
2022/06/29 03:29:20;;;;;;;;;;;14.60;99.90;;;;;;5006725;28;19929;-71
2022/06/29 03:31:47;;;;;;;;;;;14.50;99.90;;;;;;5008786;28;19926;-71
2022/06/29 03:34:14;;;;;;;;;;;14.50;99.90;;;;;;5014345;28;19929;-71
2022/06/29 03:36:41;;;;;;;;;;;14.50;99.90;;;;;;4995904;28;19927;-71
2022/06/29 03:39:08;;;;;;;;;;;14.50;99.90;;;;;;4996508;28;20357;-71
2022/06/29 03:41:36;;;;;;;;;;;14.50;99.90;;;;;;5000318;28;19925;-71
2022/06/29 03:44:03;;;;;;;;;;;14.50;99.90;;;;;;4997607;28;19933;-71
2022/06/29 03:46:29;;;;;;;;;;;14.50;99.90;;;;;;5007712;28;19932;-70
2022/06/29 03:48:56;;;;;;;;;;;14.40;99.90;;;;;;5004917;28;19965;-70
2022/06/29 03:51:23;;;;;;;;;;;14.30;99.90;;;;;;5007998;28;19932;-71
2022/06/29 03:53:51;;;;;;;;;;;14.30;99.90;;;;;;4997949;28;19926;-70
2022/06/29 03:56:18;;;;;;;;;;;14.30;99.90;;;;;;5003835;28;20377;-70
2022/06/29 03:58:46;;;;;;;;;;;14.40;99.90;;;;;;4997484;28;20408;-71
2022/06/29 04:01:13;;;;;;;;;;;14.40;99.90;;;;;;4995658;28;20016;-71
2022/06/29 04:03:39;;;;;;;;;;;14.40;99.90;;;;;;4994057;28;19972;-71
2022/06/29 04:06:07;;;;;;;;;;;14.40;99.90;;;;;;5004162;28;19961;-71
2022/06/29 04:08:35;;;;;;;;;;;14.40;99.90;;;;;;5000108;28;19925;-71
2022/06/29 04:11:02;;;;;;;;;;;14.50;99.90;;;;;;5001753;28;19932;-71
2022/06/29 04:13:28;;;;;;;;;;;14.40;99.90;;;;;;5010343;28;20016;-71
2022/06/29 04:15:56;;;;;;;;;;;14.40;99.90;;;;;;5005252;28;19964;-71
2022/06/29 04:18:23;;;;;;;;;;;14.50;99.90;;;;;;5006993;28;20057;-71
2022/06/29 04:21:08;;;;;;;;;;;14.50;99.90;;;;;;5009893;28;20004;-71
2022/06/29 04:23:35;;;;;;;;;;;14.60;99.90;;;;;;5012473;28;19972;-70
2022/06/29 04:26:01;;;;;;;;;;;14.50;99.90;;;;;;4996956;28;20289;-71
2022/06/29 04:28:28;;;;;;;;;;;14.50;99.90;;;;;;5002985;28;19979;-71
2022/06/29 04:30:55;;;;;;;;;;;14.50;99.90;;;;;;5009934;28;20020;-71
2022/06/29 04:33:24;;;;;;;;;;;14.60;99.90;;;;;;5003440;28;20401;-71
2022/06/29 04:35:51;;;;;;;;;;;14.70;99.90;;;;;;5003231;28;20401;-71
2022/06/29 04:38:17;;;;;;;;;;;14.80;99.90;;;;;;5005782;28;19932;-72
2022/06/29 04:40:44;;;;;;;;;;;14.80;99.90;;;;;;4999953;28;20008;-71
2022/06/29 04:43:11;;;;;;;;;;;14.90;99.90;;;;;;4997113;28;19961;-71
2022/06/29 04:48:23;;;;;;;;;;;15.10;99.90;;;;;;4993745;28;19941;-71
2022/06/29 04:50:50;;;;;;;;;;;15.20;99.90;;;;;;5000302;28;19973;-71
2022/06/29 04:53:16;;;;;;;;;;;15.10;99.90;;;;;;4992716;28;20423;-71
2022/06/29 04:55:43;;;;;;;;;;;15.20;99.90;;;;;;4994344;28;20016;-71
2022/06/29 04:58:10;;;;;;;;;;;15.30;99.90;;;;;;5001230;28;19987;-71
2022/06/29 05:00:36;;;;;;;;;;;15.30;99.90;;;;;;4999271;28;19984;-70
2022/06/29 05:03:03;;;;;;;;;;;15.30;99.90;;;;;;4995896;28;20023;-70
2022/06/29 05:05:31;;;;;;;;;;;15.40;99.90;;;;;;5011319;28;19964;-70
2022/06/29 05:07:58;;;;;;;;;;;15.50;99.90;;;;;;5005252;28;19973;-71
2022/06/29 05:10:25;;;;;;;;;;;15.60;99.90;;;;;;5001203;28;19961;-70
2022/06/29 05:12:51;;;;;;;;;;;15.60;99.90;;;;;;4994192;28;20404;-72
2022/06/29 05:15:18;;;;;;;;;;;15.70;99.90;;;;;;4996535;28;19976;-69
2022/06/29 05:17:47;;;;;;;;;;;15.90;99.90;;;;;;5000637;28;19932;-72
2022/06/29 05:20:14;;;;;;;;;;;16.10;99.90;;;;;;4994323;28;20377;-72
2022/06/29 05:22:42;;;;;;;;;;;16.20;99.90;;;;;;5011018;28;19965;-72
2022/06/29 05:25:09;;;;;;;;;;;16.30;99.90;;;;;;4994328;28;19976;-71
2022/06/29 05:27:35;;;;;;;;;;;16.50;99.90;;;;;;5000473;28;21196;-72
2022/06/29 05:30:02;;;;;;;;;;;16.60;99.90;;;;;;4995083;28;20122;-72
2022/06/29 05:32:29;;;;;;;;;;;16.70;99.90;;;;;;4999007;28;19968;-72
2022/06/29 05:34:56;;;;;;;;;;;16.90;99.90;;;;;;4997405;28;19934;-72
2022/06/29 05:37:23;;;;;;;;;;;17.10;99.90;;;;;;4995183;28;19926;-72
2022/06/29 05:39:51;;;;;;;;;;;17.40;99.90;;;;;;4994444;28;19930;-71
2022/06/29 05:42:18;;;;;;;;;;;17.60;99.90;;;;;;4995158;28;20023;-72
2022/06/29 05:44:44;;;;;;;;;;;17.70;99.90;;;;;;4995770;28;20013;-73
2022/06/29 05:47:11;;;;;;;;;;;17.80;99.90;;;;;;4996154;28;20015;-73
2022/06/29 05:49:38;;;;;;;;;;;17.90;99.90;;;;;;4994688;28;20024;-73
2022/06/29 05:52:05;;;;;;;;;;;18.10;99.90;;;;;;4995927;28;20111;-71
2022/06/29 05:54:31;;;;;;;;;;;18.20;99.90;;;;;;4995683;28;19933;-72
2022/06/29 05:56:59;;;;;;;;;;;18.30;99.90;;;;;;4994687;28;20369;-72
2022/06/29 05:59:26;;;;;;;;;;;18.40;99.90;;;;;;4996959;28;20033;-72
2022/06/29 06:01:53;;;;;;;;;;;18.40;99.90;;;;;;4993349;28;19976;-71
2022/06/29 06:04:20;;;;;;;;;;;18.80;99.90;;;;;;4992575;28;19973;-72
2022/06/29 06:06:46;;;;;;;;;;;20.70;99.90;;;;;;4998809;28;19964;-72
2022/06/29 06:09:13;;;;;;;;;;;22.90;98.30;;;;;;5002694;28;20020;-74
2022/06/29 06:11:40;;;;;;;;;;;25.00;88.10;;;;;;5001609;28;19930;-72
2022/06/29 06:14:09;;;;;;;;;;;26.90;62.60;;;;;;5003071;28;19983;-71
2022/06/29 06:16:36;;;;;;;;;;;27.40;50.20;;;;;;4998039;28;19965;-71
2022/06/29 06:19:02;;;;;;;;;;;28.50;42.50;;;;;;5003106;28;20656;-72
2022/06/29 06:21:29;;;;;;;;;;;29.40;35.90;;;;;;5004195;28;19929;-70
2022/06/29 06:23:56;;;;;;;;;;;29.90;32.20;;;;;;5010127;28;19934;-69
2022/06/29 06:26:22;;;;;;;;;;;30.70;28.60;;;;;;5008084;28;19968;-72
2022/06/29 06:28:50;;;;;;;;;;;31.50;25.20;;;;;;5014343;28;20012;-72
2022/06/29 06:31:18;;;;;;;;;;;31.60;23.10;;;;;;5010892;28;19939;-71
2022/06/29 06:33:45;;;;;;;;;;;31.90;21.20;;;;;;5013226;28;19975;-75
2022/06/29 06:36:12;;;;;;;;;;;31.90;20.50;;;;;;5010464;28;19995;-70
2022/06/29 06:38:38;;;;;;;;;;;31.90;19.50;;;;;;5011598;28;19932;-72
2022/06/29 06:41:25;;;;;;;;;;;31.90;19.80;;;;;;5008285;28;19968;-71
2022/06/29 06:43:53;;;;;;;;;;;32.70;18.70;;;;;;5011475;28;19941;-71
2022/06/29 06:46:21;;;;;;;;;;;33.20;16.50;;;;;;5009971;28;20027;-72
2022/06/29 06:48:49;;;;;;;;;;;33.30;15.90;;;;;;5012101;28;20439;-71
2022/06/29 06:51:16;;;;;;;;;;;32.70;15.90;;;;;;5005461;28;19926;-72
2022/06/29 06:53:42;;;;;;;;;;;33.00;16.10;;;;;;5010988;28;20286;-71
2022/06/29 06:56:09;;;;;;;;;;;32.80;15.00;;;;;;5003778;28;20016;-71
2022/06/29 06:58:36;;;;;;;;;;;32.30;15.50;;;;;;5001381;28;20370;-70
2022/06/29 07:01:04;;;;;;;;;;;32.80;14.30;;;;;;5007221;28;20369;-72
2022/06/29 07:03:32;;;;;;;;;;;33.30;12.80;;;;;;5009518;28;19929;-71
2022/06/29 07:06:00;;;;;;;;;;;33.00;12.70;;;;;;5006227;28;19941;-71
2022/06/29 07:08:27;;;;;;;;;;;33.20;13.20;;;;;;5002794;28;20007;-72
2022/06/29 07:10:53;;;;;;;;;;;34.00;12.00;;;;;;5008273;28;20013;-71
2022/06/29 07:13:20;;;;;;;;;;;34.00;10.70;;;;;;5002570;28;19926;-72
2022/06/29 07:15:47;;;;;;;;;;;34.00;10.10;;;;;;5005275;28;20447;-71
2022/06/29 07:18:13;;;;;;;;;;;33.40;9.60;;;;;;5006823;28;20049;-72
2022/06/29 07:20:41;;;;;;;;;;;32.40;10.80;;;;;;5010426;28;19947;-72
2022/06/29 07:23:08;;;;;;;;;;;32.30;11.00;;;;;;5012267;28;19925;-72
2022/06/29 07:25:35;;;;;;;;;;;32.10;9.60;;;;;;5007680;28;20365;-72
2022/06/29 07:28:02;;;;;;;;;;;30.90;11.50;;;;;;5009365;28;20009;-71
2022/06/29 07:30:28;;;;;;;;;;;31.00;11.70;;;;;;5003028;28;20300;-71
2022/06/29 07:32:55;;;;;;;;;;;30.70;12.30;;;;;;5010304;28;20332;-72
2022/06/29 07:35:22;;;;;;;;;;;31.20;12.10;;;;;;4996339;28;19926;-72
2022/06/29 07:37:51;;;;;;;;;;;32.30;10.90;;;;;;5010484;28;19925;-72
2022/06/29 07:40:18;;;;;;;;;;;32.20;9.90;;;;;;5006288;28;19936;-72
2022/06/29 07:42:45;;;;;;;;;;;32.10;10.60;;;;;;5004894;28;19944;-72
2022/06/29 07:45:12;;;;;;;;;;;32.40;10.40;;;;;;5010967;28;19995;-71
2022/06/29 07:47:39;;;;;;;;;;;32.90;9.30;;;;;;5013007;28;20023;-71
2022/06/29 07:50:06;;;;;;;;;;;32.90;9.30;;;;;;5005714;28;19926;-72
2022/06/29 07:52:33;;;;;;;;;;;33.90;18.80;;;;;;5001763;28;19987;-72
2022/06/29 07:55:02;;;;;;;;;;;34.60;20.30;;;;;;4996491;28;19933;-72
2022/06/29 07:57:29;;;;;;;;;;;34.10;22.30;;;;;;4999591;28;20064;-72
2022/06/29 07:59:56;;;;;;;;;;;33.90;29.60;;;;;;4996745;28;20013;-72
2022/06/29 08:02:22;;;;;;;;;;;33.80;6.60;;;;;;5000662;28;20320;-73
2022/06/29 08:04:49;;;;;;;;;;;33.70;7.60;;;;;;5001249;28;19969;-72
2022/06/29 08:07:16;;;;;;;;;;;33.50;7.70;;;;;;4999712;28;19980;-72
2022/06/29 08:09:42;;;;;;;;;;;33.70;7.40;;;;;;4999528;28;20416;-71
2022/06/29 08:12:11;;;;;;;;;;;34.40;6.50;;;;;;5002161;28;20404;-72
2022/06/29 08:14:37;;;;;;;;;;;34.50;6.20;;;;;;5005910;28;20324;-71
2022/06/29 08:17:04;;;;;;;;;;;34.70;5.70;;;;;;5000971;28;19984;-71
2022/06/29 08:19:31;;;;;;;;;;;33.60;6.60;;;;;;5001720;28;19925;-71
2022/06/29 08:21:58;;;;;;;;;;;33.40;7.00;;;;;;4999677;28;19961;-71
2022/06/29 08:24:27;;;;;;;;;;;33.80;7.00;;;;;;4997385;28;20007;-71
2022/06/29 08:26:53;;;;;;;;;;;33.60;6.70;;;;;;4997573;28;19969;-71
2022/06/29 08:29:21;;;;;;;;;;;33.90;6.20;;;;;;5002181;28;19957;-71
2022/06/29 08:31:48;;;;;;;;;;;33.50;6.70;;;;;;5003334;28;20005;-72
2022/06/29 08:34:15;;;;;;;;;;;33.00;7.40;;;;;;5007689;28;19980;-71
2022/06/29 08:36:42;;;;;;;;;;;33.50;7.10;;;;;;5008133;28;19925;-72
2022/06/29 08:39:09;;;;;;;;;;;33.90;6.30;;;;;;5004238;28;19976;-72
2022/06/29 08:41:36;;;;;;;;;;;34.40;5.50;;;;;;4994457;28;19926;-72
2022/06/29 08:44:04;;;;;;;;;;;34.70;4.40;;;;;;5008402;28;19972;-71
2022/06/29 08:46:32;;;;;;;;;;;34.20;4.50;;;;;;5004949;28;19930;-72
2022/06/29 08:49:01;;;;;;;;;;;34.00;4.60;;;;;;5003868;28;20399;-72
2022/06/29 08:51:31;;;;;;;;;;;34.30;3.90;;;;;;5000858;28;19930;-72
2022/06/29 08:53:58;;;;;;;;;;;34.80;3.20;;;;;;5009803;28;19926;-71
2022/06/29 08:56:25;;;;;;;;;;;34.80;3.30;;;;;;5003708;28;19929;-72
2022/06/29 08:58:52;;;;;;;;;;;34.10;3.20;;;;;;5010280;28;19968;-72
2022/06/29 09:01:18;;;;;;;;;;;33.20;4.60;;;;;;5000186;28;20035;-72
2022/06/29 09:03:46;;;;;;;;;;;33.80;4.10;;;;;;5006279;28;19932;-72
2022/06/29 09:06:13;;;;;;;;;;;34.10;3.20;;;;;;4997763;28;20499;-72
2022/06/29 09:08:40;;;;;;;;;;;34.70;3.00;;;;;;4998759;28;19980;-72
2022/06/29 09:11:21;;;;;;;;;;;35.20;2.70;;;;;;4998690;28;19965;-72
2022/06/29 09:13:47;;;;;;;;;;;35.00;1.80;;;;;;4998231;28;19925;-72
2022/06/29 09:16:14;;;;;;;;;;;;;;;;;;4996300;28;20404;-72
2022/06/29 09:18:41;;;;;;;;;;;;;;;;;;4995682;28;20044;-72
2022/06/29 09:21:08;;;;;;;;;;;;;;;;;;5000031;28;19972;-71
2022/06/29 09:23:35;;;;;;;;;;;;;;;;;;4995100;28;20020;-72
2022/06/29 09:26:02;;;;;;;;;;;;;;;;;;4999268;28;19926;-72
2022/06/29 09:28:30;;;;;;;;;;;;;;;;;;4999990;28;20004;-71
2022/06/29 09:30:57;;;;;;;;;;;;;;;;;;5002157;28;20439;-72
2022/06/29 09:33:24;;;;;;;;;;;;;;;;;;5005958;28;19925;-72
2022/06/29 09:35:51;;;;;;;;;;;;;;;;;;5005811;28;19925;-72
2022/06/29 09:38:18;;;;;;;;;;;;;;;;;;4998274;28;20024;-72
2022/06/29 09:40:45;;;;;;;;;;;;;;;;;;4996244;28;19934;-71
2022/06/29 09:43:12;;;;;;;;;;;;;;;;;;4994778;28;20456;-71
2022/06/29 09:45:41;;;;;;;;;;;;;;;;;;4991509;28;20015;-71
2022/06/29 09:48:08;;;;;;;;;;;;;;;;;;4995742;28;19988;-71
2022/06/29 09:50:35;;;;;;;;;;;;;;;;;;4998254;28;19968;-71
2022/06/29 09:53:02;;;;;;;;;;;;;;;;;;4999800;28;20092;-72
2022/06/29 09:55:29;;;;;;;;;;;;;;;;;;5002147;28;19926;-71
2022/06/29 09:57:56;;;;;;;;;;;;;;;;;;5006572;28;19936;-72
2022/06/29 10:03:08;;;;;;;;;;;;;;;;;;5007140;28;20008;-71
2022/06/29 10:08:17;;;;;;;;;;;34.10;1.00;;;;;;4995349;28;20369;-71
2022/06/29 10:10:45;;;;;;;;;;;34.00;1.00;;;;;;5007844;28;19926;-70
2022/06/29 10:16:05;;;;;;;;;;;33.20;1.00;;;;;;4999927;28;19980;-72
2022/06/29 10:18:38;;;;;;;;;;;32.20;1.00;;;;;;5003360;28;19932;-72
2022/06/29 10:21:13;;;;;;;;;;;30.50;1.40;;;;;;5002533;28;19926;-72
2022/06/29 10:23:49;;;;;;;;;;;29.60;3.00;;;;;;5000371;28;20039;-73
2022/06/29 10:26:35;;;;;;;;;;;29.40;3.50;;;;;;5003293;28;19929;-72
2022/06/29 10:29:27;;;;;;;;;;;29.00;3.80;;;;;;4995505;28;20116;-72
2022/06/29 10:32:05;;;;;;;;;;;28.60;5.80;;;;;;4996854;28;19944;-73
2022/06/29 10:34:41;;;;;;;;;;;28.50;5.00;;;;;;4993765;28;20003;-73
2022/06/29 10:37:09;;;;;;;;;;;28.70;5.20;;;;;;4995971;28;19929;-72
2022/06/29 10:39:50;;;;;;;;;;;28.70;5.00;;;;;;4997910;28;20025;-72
2022/06/29 10:45:17;;;;;;;;;;;28.60;6.30;;;;;;4995242;28;19933;-72
2022/06/29 10:47:45;;;;;;;;;;;28.50;5.30;;;;;;5005072;28;19932;-73
2022/06/29 10:50:28;;;;;;;;;;;28.50;5.60;;;;;;5005246;28;20038;-72
2022/06/29 10:52:55;;;;;;;;;;;28.60;6.00;;;;;;5007033;28;19975;-72
2022/06/29 10:55:23;;;;;;;;;;;28.50;6.20;;;;;;5006533;28;20004;-71
2022/06/29 10:57:50;;;;;;;;;;;28.70;6.10;;;;;;5007599;28;20025;-72
2022/06/29 11:00:20;;;;;;;;;;;28.60;5.00;;;;;;5003870;28;20020;-71
2022/06/29 11:02:48;;;;;;;;;;;28.20;5.20;;;;;;5009304;28;19925;-72
2022/06/29 11:05:14;;;;;;;;;;;27.90;6.00;;;;;;5006922;28;19977;-71
2022/06/29 11:13:11;;;;;;;;;;;28.00;6.70;;;;;;5012117;28;19932;-72
2022/06/29 11:15:42;;;;;;;;;;;28.50;6.40;;;;;;5005337;28;19925;-72
2022/06/29 11:18:10;;;;;;;;;;;28.90;5.90;;;;;;4998897;28;19925;-71
2022/06/29 11:20:38;;;;;;;;;;;29.00;5.30;;;;;;4999389;28;20309;-72
2022/06/29 11:23:09;;;;;;;;;;;29.00;5.70;;;;;;5006284;28;19967;-72
2022/06/29 11:25:37;;;;;;;;;;;29.00;5.80;;;;;;5008816;28;19961;-72
2022/06/29 11:28:04;;;;;;;;;;;29.10;5.00;;;;;;5007988;28;20012;-72
2022/06/29 11:30:30;;;;;;;;;;;28.90;5.30;;;;;;5007951;28;20446;-73
2022/06/29 11:32:59;;;;;;;;;;;28.70;4.40;;;;;;5013872;28;20229;-72
2022/06/29 11:35:26;;;;;;;;;;;29.00;4.80;;;;;;5011383;28;20304;-72
2022/06/29 11:37:53;;;;;;;;;;;28.90;3.70;;;;;;5013504;28;19925;-72
2022/06/29 11:40:20;;;;;;;;;;;28.90;4.40;;;;;;5010692;28;20005;-72
2022/06/29 11:43:05;;;;;;;;;;;28.70;4.40;;;;;;5012205;28;19973;-72
2022/06/29 11:45:39;;;;;;;;;;;28.80;3.80;;;;;;5008499;28;19926;-72
2022/06/29 11:48:16;;;;;;;;;;;28.60;3.90;;;;;;5006627;28;19930;-72
2022/06/29 11:50:44;;;;;;;;;;;28.30;4.50;;;;;;5008403;28;19932;-72
2022/06/29 11:53:12;;;;;;;;;;;28.40;5.00;;;;;;5005408;28;19965;-72
2022/06/29 11:55:39;;;;;;;;;;;28.60;4.40;;;;;;5012092;28;20028;-72
2022/06/29 11:58:06;;;;;;;;;;;28.70;5.10;;;;;;5003824;28;19925;-71
2022/06/29 12:00:33;;;;;;;;;;;28.80;4.70;;;;;;5004265;28;20339;-71
2022/06/29 12:03:01;;;;;;;;;;;28.60;4.00;;;;;;5003971;28;19933;-68
2022/06/29 12:05:29;;;;;;;;;;;28.30;4.30;;;;;;5000354;28;19925;-73
2022/06/29 12:07:56;;;;;;;;;;;28.50;4.80;;;;;;5008193;28;19926;-72
2022/06/29 12:10:23;;;;;;;;;;;28.50;5.20;;;;;;5001719;28;19940;-76
2022/06/29 12:12:49;;;;;;;;;;;28.50;5.30;;;;;;5000985;28;20039;-78
2022/06/29 12:15:16;;;;;;;;;;;28.80;5.30;;;;;;5009221;28;19959;-77
2022/06/29 12:17:43;;;;;;;;;;;28.60;5.30;;;;;;5004939;28;19967;-73
2022/06/29 12:20:10;;;;;;;;;;;28.60;4.50;;;;;;5000375;28;19925;-72
2022/06/29 12:22:40;;;;;;;;;;;28.60;4.40;;;;;;5008639;28;21354;-72
2022/06/29 12:25:07;;;;;;;;;;;28.70;4.40;;;;;;5004182;28;19967;-73
2022/06/29 12:27:36;;;;;;;;;;;28.80;4.90;;;;;;5003231;28;20012;-73
2022/06/29 12:30:04;;;;;;;;;;;28.60;5.90;;;;;;5005561;28;19926;-73
2022/06/29 12:32:30;;;;;;;;;;;28.50;4.40;;;;;;5008453;28;19925;-73
2022/06/29 12:34:57;;;;;;;;;;;28.50;4.70;;;;;;5006992;28;20045;-73
2022/06/29 12:37:24;;;;;;;;;;;28.80;4.80;;;;;;5010525;28;19965;-72
2022/06/29 12:39:52;;;;;;;;;;;28.90;5.00;;;;;;5009492;28;19936;-72
2022/06/29 12:42:19;;;;;;;;;;;28.80;4.70;;;;;;5007980;28;19937;-72
2022/06/29 12:44:45;;;;;;;;;;;28.70;4.80;;;;;;5008637;28;20372;-71
2022/06/29 12:47:12;;;;;;;;;;;28.50;5.50;;;;;;5008385;28;20365;-72
2022/06/29 12:49:39;;;;;;;;;;;28.60;4.60;;;;;;5008161;28;19933;-72
2022/06/29 12:52:06;;;;;;;;;;;28.40;6.20;;;;;;5000270;28;19969;-71
2022/06/29 12:54:33;;;;;;;;;;;28.50;5.30;;;;;;5007602;28;19936;-72
2022/06/29 12:57:01;;;;;;;;;;;28.60;5.10;;;;;;5002685;28;20389;-71
2022/06/29 12:59:28;;;;;;;;;;;28.60;4.50;;;;;;5002974;28;20365;-71
2022/06/29 13:01:54;;;;;;;;;;;28.70;4.60;;;;;;4997090;28;20024;-72
2022/06/29 13:04:21;;;;;;;;;;;28.50;5.00;;;;;;5006085;28;19926;-73
2022/06/29 13:06:48;;;;;;;;;;;28.20;6.10;;;;;;5000803;28;19932;-72
2022/06/29 13:09:14;;;;;;;;;;;28.20;5.60;;;;;;5001716;28;20020;-71
2022/06/29 13:11:41;;;;;;;;;;;28.00;5.60;;;;;;5006840;28;20026;-73
2022/06/29 13:14:10;;;;;;;;;;;27.90;6.80;;;;;;5004274;28;19926;-73
2022/06/29 13:16:36;;;;;;;;;;;28.20;6.20;;;;;;5006467;28;19925;-73
2022/06/29 13:19:03;;;;;;;;;;;28.40;6.40;;;;;;5006245;28;19926;-73
2022/06/29 13:21:30;;;;;;;;;;;28.80;5.90;;;;;;5003018;28;20043;-72
2022/06/29 13:23:57;;;;;;;;;;;28.80;5.40;;;;;;5006501;28;19929;-73
2022/06/29 13:26:24;;;;;;;;;;;28.80;5.40;;;;;;5003988;28;19960;-73
2022/06/29 13:28:51;;;;;;;;;;;28.90;5.70;;;;;;5006820;28;20019;-73
2022/06/29 13:31:19;;;;;;;;;;;29.00;5.70;;;;;;5007300;28;19925;-72
2022/06/29 13:33:46;;;;;;;;;;;29.00;5.80;;;;;;5008187;28;19929;-72
2022/06/29 13:36:13;;;;;;;;;;;28.70;5.20;;;;;;5005836;28;20020;-71
2022/06/29 13:38:39;;;;;;;;;;;28.90;5.70;;;;;;5005437;28;20408;-72
2022/06/29 13:41:06;;;;;;;;;;;29.00;5.30;;;;;;5000182;28;20404;-70
2022/06/29 13:43:33;;;;;;;;;;;28.70;4.90;;;;;;5008619;28;20032;-71
2022/06/29 13:46:00;;;;;;;;;;;28.60;5.80;;;;;;5003646;28;19926;-73
2022/06/29 13:48:28;;;;;;;;;;;29.00;5.50;;;;;;5005582;28;20471;-73
2022/06/29 13:50:55;;;;;;;;;;;28.80;5.60;;;;;;5007105;28;19929;-72
2022/06/29 13:53:21;;;;;;;;;;;28.80;5.80;;;;;;5008274;28;20015;-73
2022/06/29 13:55:48;;;;;;;;;;;28.80;5.00;;;;;;5002995;28;20007;-72
2022/06/29 13:58:15;;;;;;;;;;;28.50;5.40;;;;;;5002168;28;20017;-73
2022/06/29 14:00:42;;;;;;;;;;;28.70;5.00;;;;;;5003388;28;19996;-71
2022/06/29 14:03:08;;;;;;;;;;;28.90;6.00;;;;;;5002290;28;20340;-72
2022/06/29 14:05:36;;;;;;;;;;;28.90;5.10;;;;;;5006888;28;19934;-72
2022/06/29 14:08:03;;;;;;;;;;;28.80;4.50;;;;;;5007130;28;20407;-72
2022/06/29 14:10:30;;;;;;;;;;;28.60;4.90;;;;;;5001212;28;19926;-73
2022/06/29 14:12:57;;;;;;;;;;;28.80;5.60;;;;;;4999055;28;19933;-73
2022/06/29 14:15:24;;;;;;;;;;;29.10;6.20;;;;;;5001835;28;19926;-72
2022/06/29 14:17:50;;;;;;;;;;;29.10;5.80;;;;;;5001537;28;19937;-73
2022/06/29 14:20:17;;;;;;;;;;;29.10;5.20;;;;;;5003676;28;20316;-73
2022/06/29 14:22:45;;;;;;;;;;;28.90;5.10;;;;;;5003894;28;20472;-71
2022/06/29 14:25:13;;;;;;;;;;;28.80;5.80;;;;;;4997555;28;19956;-72
2022/06/29 14:27:40;;;;;;;;;;;28.70;5.70;;;;;;4995644;28;19955;-71
2022/06/29 14:30:07;;;;;;;;;;;28.80;5.50;;;;;;4995734;28;19929;-73
2022/06/29 14:32:34;;;;;;;;;;;28.60;5.30;;;;;;4995073;28;20068;-72
2022/06/29 14:35:00;;;;;;;;;;;28.70;6.10;;;;;;5000105;28;20032;-73
2022/06/29 14:37:27;;;;;;;;;;;28.60;5.20;;;;;;5002494;28;20388;-72
2022/06/29 14:39:55;;;;;;;;;;;28.60;6.20;;;;;;4998217;28;19969;-72
2022/06/29 14:42:24;;;;;;;;;;;28.70;6.10;;;;;;5001580;28;20313;-73
2022/06/29 14:44:51;;;;;;;;;;;28.70;5.80;;;;;;5001844;28;19925;-73
2022/06/29 14:47:17;;;;;;;;;;;28.80;5.70;;;;;;5011641;28;20388;-73
2022/06/29 14:49:44;;;;;;;;;;;29.00;5.40;;;;;;5009079;28;19948;-73
2022/06/29 14:52:11;;;;;;;;;;;29.10;5.90;;;;;;5007652;28;20005;-73